createdAt,value
2018-10-17T00:01:52.851Z,8.30
2018-10-17T00:04:21.264Z,7.10
2018-10-17T00:06:50.883Z,7.53
2018-10-17T00:09:20.877Z,7.57
2018-10-17T00:11:50.064Z,7.07
2018-10-17T00:14:23.652Z,7.03
2018-10-17T00:16:53.525Z,7.33
2018-10-17T00:19:22.295Z,8.53
2018-10-17T00:21:51.093Z,7.63
2018-10-17T00:24:28.311Z,7.57
2018-10-17T00:26:57.357Z,7.37
2018-10-17T00:29:26.149Z,7.60
2018-10-17T00:31:55.864Z,7.97
2018-10-17T00:34:24.487Z,7.70
2018-10-17T00:36:54.385Z,7.73
2018-10-17T00:39:22.918Z,9.00
2018-10-17T00:41:52.869Z,7.70
2018-10-17T00:44:23.389Z,7.97
2018-10-17T00:46:52.673Z,8.97
2018-10-17T00:49:22.638Z,8.23
2018-10-17T00:51:51.172Z,7.83
2018-10-17T00:54:20.667Z,8.07
2018-10-17T00:56:49.583Z,8.47
2018-10-17T00:59:18.489Z,7.80
2018-10-17T01:01:47.275Z,8.13
2018-10-17T01:04:16.555Z,8.17
2018-10-17T01:06:45.515Z,7.47
2018-10-17T01:09:18.157Z,8.23
2018-10-17T01:11:47.171Z,7.87
2018-10-17T01:14:15.838Z,7.07
2018-10-17T01:16:45.675Z,7.97
2018-10-17T01:19:14.763Z,7.33
2018-10-17T01:21:44.759Z,8.10
2018-10-17T01:24:14.521Z,7.50
2018-10-17T01:26:43.257Z,8.27
2018-10-17T01:29:14.708Z,7.87
2018-10-17T01:31:43.877Z,7.83
2018-10-17T01:34:13.167Z,7.33
2018-10-17T01:36:43.301Z,7.20
2018-10-17T01:39:12.530Z,7.47
2018-10-17T01:41:41.722Z,7.23
2018-10-17T01:44:10.942Z,7.23
2018-10-17T01:46:40.782Z,7.47
2018-10-17T01:49:09.319Z,6.90
2018-10-17T01:51:38.184Z,7.07
2018-10-17T01:54:07.554Z,7.20
2018-10-17T01:56:36.191Z,7.50
2018-10-17T01:59:06.274Z,7.83
2018-10-17T02:01:35.882Z,7.27
2018-10-17T02:04:05.421Z,7.43
2018-10-17T02:06:34.401Z,7.27
2018-10-17T02:09:03.106Z,7.87
2018-10-17T02:11:32.661Z,7.30
2018-10-17T02:14:02.530Z,7.87
2018-10-17T02:16:31.576Z,7.43
2018-10-17T02:19:00.788Z,7.90
2018-10-17T02:21:30.498Z,7.23
2018-10-17T02:24:02.237Z,7.60
2018-10-17T02:26:34.644Z,7.17
2018-10-17T02:29:09.763Z,7.40
2018-10-17T02:31:42.613Z,7.10
2018-10-17T02:34:11.144Z,7.63
2018-10-17T02:36:41.764Z,7.77
2018-10-17T02:39:12.731Z,7.27
2018-10-17T02:41:45.124Z,7.53
2018-10-17T02:44:16.414Z,7.90
2018-10-17T02:46:47.330Z,7.50
2018-10-17T02:49:16.068Z,7.60
2018-10-17T02:51:44.709Z,6.70
2018-10-17T02:54:13.430Z,7.40
2018-10-17T02:56:42.830Z,6.83
2018-10-17T02:59:11.504Z,8.00
2018-10-17T03:01:42.499Z,7.30
2018-10-17T03:04:12.262Z,7.90
2018-10-17T03:06:47.856Z,8.20
2018-10-17T03:09:17.547Z,6.77
2018-10-17T03:11:47.796Z,7.27
2018-10-17T03:14:17.744Z,7.47
2018-10-17T03:16:46.446Z,7.33
2018-10-17T03:19:16.504Z,7.70
2018-10-17T03:21:45.896Z,6.73
2018-10-17T03:24:15.529Z,7.13
2018-10-17T03:26:45.813Z,7.50
2018-10-17T03:29:17.694Z,7.50
2018-10-17T03:31:46.910Z,7.70
2018-10-17T03:34:20.282Z,7.50
2018-10-17T03:36:51.702Z,7.40
2018-10-17T03:39:21.112Z,8.17
2018-10-17T03:41:50.907Z,8.17
2018-10-17T03:44:21.171Z,7.90
2018-10-17T03:46:52.372Z,8.17
2018-10-17T03:49:22.410Z,7.63
2018-10-17T03:51:51.267Z,8.47
2018-10-17T03:54:26.993Z,7.47
2018-10-17T03:56:57.326Z,7.50
2018-10-17T03:59:31.131Z,7.77
2018-10-17T04:02:00.025Z,7.93
2018-10-17T04:04:29.953Z,8.07
2018-10-17T04:07:00.887Z,7.70
2018-10-17T04:09:36.471Z,7.57
2018-10-17T04:12:05.814Z,8.23
2018-10-17T04:14:36.984Z,7.43
2018-10-17T04:17:09.330Z,7.43
2018-10-17T04:19:42.731Z,7.63
2018-10-17T04:22:11.821Z,7.30
2018-10-17T04:24:42.568Z,7.53
2018-10-17T04:27:20.130Z,8.53
2018-10-17T04:29:53.270Z,7.90
2018-10-17T04:32:24.482Z,7.90
2018-10-17T04:34:55.039Z,7.90
2018-10-17T04:37:26.571Z,8.57
2018-10-17T04:40:01.849Z,7.83
2018-10-17T04:42:30.619Z,8.33
2018-10-17T04:44:59.711Z,8.43
2018-10-17T04:47:32.122Z,8.60
2018-10-17T04:50:04.850Z,8.50
2018-10-17T04:52:33.905Z,9.73
2018-10-17T04:55:02.561Z,7.90
2018-10-17T04:57:31.827Z,9.60
2018-10-17T05:00:01.720Z,9.23
2018-10-17T05:02:31.403Z,8.60
2018-10-17T05:07:42.603Z,9.00
2018-10-17T05:10:19.712Z,9.27
2018-10-17T05:12:52.768Z,9.47
2018-10-17T05:15:21.493Z,9.43
2018-10-17T05:17:51.358Z,9.20
2018-10-17T05:20:21.087Z,9.00
2018-10-17T05:22:51.560Z,9.03
2018-10-17T05:25:20.290Z,9.03
2018-10-17T05:27:49.111Z,9.20
2018-10-17T05:30:18.431Z,9.13
2018-10-17T05:32:59.056Z,8.87
2018-10-17T05:35:29.325Z,9.27
2018-10-17T05:38:03.891Z,9.13
2018-10-17T05:40:37.317Z,8.07
2018-10-17T05:43:07.130Z,8.93
2018-10-17T05:45:39.071Z,9.83
2018-10-17T05:48:23.169Z,9.10
2018-10-17T05:51:00.202Z,9.63
2018-10-17T05:53:34.950Z,9.77
2018-10-17T05:56:15.714Z,9.40
2018-10-17T05:59:06.405Z,9.23
2018-10-17T06:01:46.814Z,9.47
2018-10-17T06:04:34.282Z,10.03
2018-10-17T06:07:19.230Z,10.43
2018-10-17T06:09:57.799Z,10.50
2018-10-17T06:12:28.720Z,9.83
2018-10-17T06:14:57.317Z,10.73
2018-10-17T06:17:27.043Z,9.80
2018-10-17T06:19:58.657Z,10.23
2018-10-17T06:22:42.386Z,10.03
2018-10-17T06:25:26.851Z,10.10
2018-10-17T06:28:06.432Z,10.57
2018-10-17T06:30:36.688Z,10.47
2018-10-17T06:33:11.718Z,11.40
2018-10-17T06:35:41.427Z,10.53
2018-10-17T06:38:10.137Z,10.87
2018-10-17T06:40:39.769Z,25.27
2018-10-17T06:43:08.311Z,11.53
2018-10-17T06:45:38.810Z,10.47
2018-10-17T06:48:07.286Z,9.37
2018-10-17T06:50:36.513Z,10.27
2018-10-17T06:53:06.154Z,10.47
2018-10-17T06:55:34.667Z,9.87
2018-10-17T06:58:03.592Z,9.60
2018-10-17T07:00:33.343Z,10.40
2018-10-17T07:03:02.958Z,10.37
2018-10-17T07:05:31.447Z,9.93
2018-10-17T07:08:00.352Z,10.97
2018-10-17T07:10:28.857Z,10.93
2018-10-17T07:12:57.895Z,10.40
2018-10-17T07:15:26.577Z,11.17
2018-10-17T07:17:57.509Z,11.73
2018-10-17T07:20:27.078Z,11.70
2018-10-17T07:22:57.147Z,11.57
2018-10-17T07:25:25.798Z,11.73
2018-10-17T07:27:54.321Z,12.87
2018-10-17T07:30:23.103Z,10.20
2018-10-17T07:32:51.884Z,11.33
2018-10-17T07:35:21.179Z,11.07
2018-10-17T07:37:49.815Z,12.03
2018-10-17T07:40:18.730Z,11.07
2018-10-17T07:42:47.635Z,12.70
2018-10-17T07:45:16.071Z,11.27
2018-10-17T07:47:45.037Z,12.70
2018-10-17T07:50:13.828Z,11.53
2018-10-17T07:52:42.487Z,12.50
2018-10-17T07:55:12.684Z,12.63
2018-10-17T07:57:42.082Z,12.20
2018-10-17T08:00:19.830Z,12.67
2018-10-17T08:02:51.446Z,12.87
2018-10-17T08:05:26.725Z,13.20
2018-10-17T08:08:00.247Z,13.60
2018-10-17T08:10:28.815Z,12.10
2018-10-17T08:12:57.665Z,12.53
2018-10-17T08:15:26.406Z,13.33
2018-10-17T08:17:59.149Z,11.47
2018-10-17T08:20:39.843Z,13.83
2018-10-17T08:23:17.932Z,13.77
2018-10-17T08:25:58.672Z,13.20
2018-10-17T08:28:39.479Z,13.73
2018-10-17T08:31:17.351Z,13.57
2018-10-17T08:33:58.198Z,12.87
2018-10-17T08:36:42.341Z,11.10
2018-10-17T08:39:13.347Z,11.40
2018-10-17T08:41:45.941Z,11.67
2018-10-17T08:44:16.873Z,13.00
2018-10-17T08:46:48.099Z,13.57
2018-10-17T08:49:17.873Z,12.60
2018-10-17T08:51:52.927Z,11.60
2018-10-17T08:54:22.141Z,14.43
2018-10-17T08:56:51.942Z,13.07
2018-10-17T08:59:21.647Z,11.67
2018-10-17T09:01:50.367Z,13.77
2018-10-17T09:04:20.214Z,12.50
2018-10-17T09:06:49.302Z,13.10
2018-10-17T09:09:20.578Z,13.73
2018-10-17T09:11:55.853Z,13.33
2018-10-17T09:14:26.274Z,12.43
2018-10-17T09:16:57.097Z,12.03
2018-10-17T09:19:40.028Z,11.37
2018-10-17T09:22:20.575Z,12.40
2018-10-17T09:24:49.106Z,11.57
2018-10-17T09:27:19.006Z,9.80
2018-10-17T09:29:50.494Z,11.23
2018-10-17T09:32:21.453Z,10.70
2018-10-17T09:34:50.443Z,11.23
2018-10-17T09:37:19.117Z,11.33
2018-10-17T09:39:47.725Z,9.33
2018-10-17T09:42:19.137Z,8.77
2018-10-17T09:44:50.423Z,9.63
2018-10-17T09:47:21.507Z,9.53
2018-10-17T09:49:53.567Z,10.33
2018-10-17T09:52:24.218Z,9.93
2018-10-17T09:54:53.764Z,8.90
2018-10-17T09:57:22.697Z,9.37
2018-10-17T09:59:53.150Z,8.00
2018-10-17T10:02:22.148Z,8.53
2018-10-17T10:04:52.163Z,9.23
2018-10-17T10:07:20.914Z,10.70
2018-10-17T10:09:50.421Z,8.07
2018-10-17T10:12:19.875Z,8.57
2018-10-17T10:14:50.740Z,8.03
2018-10-17T10:17:19.383Z,8.37
2018-10-17T10:19:47.946Z,8.93
2018-10-17T10:22:20.129Z,9.30
2018-10-17T10:24:50.515Z,7.03
2018-10-17T10:27:19.273Z,7.43
2018-10-17T10:29:48.480Z,7.10
2018-10-17T10:32:17.878Z,7.33
2018-10-17T10:34:47.136Z,6.80
2018-10-17T10:37:20.472Z,7.17
2018-10-17T10:39:49.174Z,7.07
2018-10-17T10:42:18.078Z,6.50
2018-10-17T10:44:46.568Z,7.33
2018-10-17T10:47:15.263Z,7.43
2018-10-17T10:49:43.809Z,6.83
2018-10-17T10:52:12.878Z,7.83
2018-10-17T10:54:41.696Z,7.43
2018-10-17T10:57:12.022Z,7.20
2018-10-17T10:59:40.930Z,7.93
2018-10-17T11:02:09.941Z,7.53
2018-10-17T11:04:38.903Z,7.00
2018-10-17T11:07:07.739Z,6.87
2018-10-17T11:09:36.648Z,6.57
2018-10-17T11:12:06.532Z,7.27
2018-10-17T11:14:35.264Z,7.50
2018-10-17T11:17:04.577Z,7.20
2018-10-17T11:19:33.615Z,6.77
2018-10-17T11:22:02.899Z,6.50
2018-10-17T11:24:31.525Z,6.27
2018-10-17T11:27:02.061Z,7.23
2018-10-17T11:29:30.515Z,5.80
2018-10-17T11:31:59.113Z,6.63
2018-10-17T11:34:28.531Z,6.73
2018-10-17T11:36:57.360Z,6.27
2018-10-17T11:39:27.248Z,5.87
2018-10-17T11:41:57.942Z,6.17
2018-10-17T11:44:29.401Z,5.37
2018-10-17T11:47:02.783Z,6.77
2018-10-17T11:49:32.357Z,5.70
2018-10-17T11:52:03.981Z,5.63
2018-10-17T11:54:33.086Z,5.20
2018-10-17T11:57:01.970Z,5.77
2018-10-17T11:59:32.529Z,6.40
2018-10-17T12:02:06.711Z,6.67
2018-10-17T12:04:35.891Z,5.33
2018-10-17T12:07:05.105Z,6.00
2018-10-17T12:09:34.751Z,5.37
2018-10-17T12:12:03.734Z,6.10
2018-10-17T12:14:39.030Z,6.20
2018-10-17T12:17:08.471Z,6.33
2018-10-17T12:19:37.349Z,5.57
2018-10-17T12:22:06.632Z,5.97
2018-10-17T12:24:37.316Z,6.93
2018-10-17T12:27:06.336Z,6.40
2018-10-17T12:29:34.999Z,6.03
2018-10-17T12:32:03.578Z,5.80
2018-10-17T12:34:37.603Z,6.80
2018-10-17T12:37:06.626Z,6.70
2018-10-17T12:39:35.729Z,5.90
2018-10-17T12:42:06.340Z,5.70
2018-10-17T12:44:34.936Z,5.97
2018-10-17T12:47:06.449Z,6.87
2018-10-17T12:49:35.195Z,6.07
2018-10-17T12:52:07.255Z,5.90
2018-10-17T12:54:36.069Z,5.70
2018-10-17T12:57:06.189Z,6.53
2018-10-17T12:59:35.315Z,6.67
2018-10-17T13:02:10.030Z,6.17
2018-10-17T13:04:42.540Z,6.17
2018-10-17T13:07:11.077Z,6.33
2018-10-17T13:09:44.164Z,7.00
2018-10-17T13:12:13.835Z,6.57
2018-10-17T13:14:44.667Z,6.50
2018-10-17T13:17:14.796Z,5.70
2018-10-17T13:19:44.666Z,5.47
2018-10-17T13:22:15.173Z,5.93
2018-10-17T13:24:47.910Z,6.03
2018-10-17T13:27:16.841Z,5.40
2018-10-17T13:30:09.090Z,6.43
2018-10-17T13:33:14.262Z,5.90
2018-10-17T13:48:06.557Z,5.40
2018-10-17T13:51:09.802Z,5.93
2018-10-17T13:54:00.945Z,5.10
2018-10-17T13:57:03.844Z,5.20
2018-10-17T14:00:10.737Z,5.67
2018-10-17T14:02:58.867Z,5.93
2018-10-17T14:17:40.937Z,5.97
2018-10-17T14:23:09.244Z,5.37
2018-10-17T14:28:43.822Z,5.80
2018-10-17T14:31:31.708Z,5.90
2018-10-17T14:34:22.524Z,6.10
2018-10-17T14:37:01.319Z,6.17
2018-10-17T14:39:37.136Z,5.40
2018-10-17T14:42:19.787Z,6.00
2018-10-17T14:44:50.436Z,7.63
2018-10-17T14:47:21.490Z,5.47
2018-10-17T14:49:54.818Z,5.77
2018-10-17T14:52:35.710Z,5.20
2018-10-17T14:55:22.523Z,5.93
2018-10-17T14:57:51.803Z,5.57
2018-10-17T15:00:27.688Z,5.80
2018-10-17T15:03:06.487Z,5.23
2018-10-17T15:05:37.450Z,5.50
2018-10-17T15:08:17.857Z,5.50
2018-10-17T15:11:04.677Z,5.80
2018-10-17T15:13:34.691Z,5.73
2018-10-17T15:16:03.471Z,5.70
2018-10-17T15:18:39.198Z,5.57
2018-10-17T15:21:19.449Z,5.23
2018-10-17T15:23:52.811Z,4.87
2018-10-17T15:29:14.900Z,5.23
2018-10-17T15:31:56.346Z,5.53
2018-10-17T15:34:31.575Z,5.40
2018-10-17T15:37:16.091Z,5.37
2018-10-17T15:39:49.649Z,5.70
2018-10-17T15:42:32.085Z,5.13
2018-10-17T15:45:14.686Z,5.70
2018-10-17T15:47:59.284Z,5.97
2018-10-17T15:50:44.620Z,5.37
2018-10-17T15:53:28.091Z,5.17
2018-10-17T15:56:05.902Z,5.90
2018-10-17T15:58:46.567Z,5.93
2018-10-17T16:01:34.151Z,5.60
2018-10-17T16:04:19.542Z,5.40
2018-10-17T16:07:09.417Z,5.80
2018-10-17T16:09:38.982Z,7.00
2018-10-17T16:12:08.628Z,6.07
2018-10-17T16:14:39.805Z,6.00
2018-10-17T16:17:09.426Z,6.13
2018-10-17T16:23:05.294Z,6.77
2018-10-17T16:25:36.874Z,6.10
2018-10-17T16:31:21.538Z,6.23
2018-10-17T16:33:54.821Z,6.00
2018-10-17T16:36:41.650Z,6.70
2018-10-17T16:40:20.938Z,6.53
2018-10-17T16:43:11.534Z,6.30
2018-10-17T16:45:57.041Z,6.70
2018-10-17T16:48:36.474Z,6.77
2018-10-17T16:51:34.032Z,7.17
2018-10-17T16:54:23.090Z,6.77
2018-10-17T17:08:53.132Z,7.33
2018-10-17T17:17:43.141Z,7.90
2018-10-17T17:23:23.435Z,7.20
2018-10-17T17:26:07.410Z,7.70
2018-10-17T17:28:54.188Z,7.50
2018-10-17T17:31:45.859Z,7.10
2018-10-17T17:37:20.699Z,7.70
2018-10-17T17:40:07.123Z,6.67
2018-10-17T17:45:37.184Z,8.00
2018-10-17T17:48:26.348Z,7.67
2018-10-17T17:56:54.911Z,8.67
2018-10-17T17:59:45.185Z,9.23
2018-10-17T18:02:27.384Z,8.53
2018-10-17T18:05:16.488Z,7.83
2018-10-17T18:07:48.007Z,7.90
2018-10-17T18:10:39.507Z,9.07
2018-10-17T18:13:18.488Z,7.57
2018-10-17T18:18:59.454Z,7.67
2018-10-17T18:21:44.469Z,8.43
2018-10-17T18:24:25.856Z,8.30
2018-10-17T18:27:14.178Z,8.60
2018-10-17T18:35:53.230Z,8.23
2018-10-17T18:38:48.716Z,8.37
2018-10-17T18:44:39.240Z,7.93
2018-10-17T18:47:38.990Z,7.47
2018-10-17T18:50:31.815Z,8.30
2018-10-17T18:53:29.262Z,7.30
2018-10-17T18:56:23.442Z,7.83
2018-10-17T19:02:15.908Z,8.17
2018-10-17T19:05:06.896Z,7.43
2018-10-17T19:07:56.317Z,8.03
2018-10-17T19:10:45.896Z,7.93
2018-10-17T19:13:36.364Z,7.40
2018-10-17T19:16:28.601Z,8.50
2018-10-17T19:19:12.884Z,7.70
2018-10-17T19:28:04.384Z,7.50
2018-10-17T19:30:57.152Z,8.90
2018-10-17T19:36:48.605Z,8.80
2018-10-17T19:39:55.615Z,8.40
2018-10-17T19:45:42.779Z,8.20
2018-10-17T19:48:34.708Z,9.70
2018-10-17T19:51:28.069Z,8.60
2018-10-17T19:57:44.700Z,8.53
2018-10-17T20:10:27.049Z,8.90
2018-10-17T20:25:54.786Z,8.60
2018-10-17T20:29:01.009Z,8.50
2018-10-17T20:44:20.506Z,9.40
2018-10-17T20:50:26.150Z,8.57
2018-10-17T20:52:54.419Z,9.40
2018-10-17T20:55:22.720Z,9.40
2018-10-17T20:57:50.997Z,8.93
2018-10-17T21:00:19.409Z,9.50
2018-10-17T21:02:47.677Z,8.50
2018-10-17T21:05:15.973Z,9.13
2018-10-17T21:07:44.252Z,8.53
2018-10-17T21:10:12.526Z,9.17
2018-10-17T21:12:40.835Z,9.23
2018-10-17T21:15:09.356Z,8.90
2018-10-17T21:17:37.620Z,9.17
2018-10-17T21:20:06.059Z,9.10
2018-10-17T21:22:34.284Z,8.77
2018-10-17T21:25:02.533Z,8.70
2018-10-17T21:27:30.833Z,9.00
2018-10-17T21:29:59.093Z,8.83
2018-10-17T21:32:27.377Z,9.50
2018-10-17T21:34:55.685Z,10.20
2018-10-17T21:37:23.961Z,9.30
2018-10-17T21:39:52.256Z,9.77
2018-10-17T21:42:20.529Z,9.93
2018-10-17T21:44:48.795Z,9.40
2018-10-17T21:47:17.140Z,9.90
2018-10-17T21:49:45.350Z,9.03
2018-10-17T21:52:13.638Z,9.63
2018-10-17T21:54:41.896Z,8.87
2018-10-17T21:57:10.213Z,9.37
2018-10-17T21:59:38.483Z,9.93
2018-10-17T22:02:06.834Z,9.20
2018-10-17T22:04:35.047Z,10.33
2018-10-17T22:07:03.345Z,9.67
2018-10-17T22:09:31.665Z,10.37
2018-10-17T22:11:59.932Z,8.97
2018-10-17T22:14:28.561Z,9.67
2018-10-17T22:17:02.220Z,9.43
2018-10-17T22:19:30.473Z,9.17
2018-10-17T22:21:58.754Z,9.73
2018-10-17T22:24:27.052Z,9.17
2018-10-17T22:26:55.349Z,8.57
2018-10-17T22:29:23.670Z,9.00
2018-10-17T22:31:52.125Z,8.87
2018-10-17T22:34:20.400Z,8.60
2018-10-17T22:36:48.637Z,8.47
2018-10-17T22:39:16.928Z,8.77
2018-10-17T22:41:45.857Z,9.67
2018-10-17T22:44:14.299Z,8.93
2018-10-17T22:46:42.466Z,9.53
2018-10-17T22:49:11.213Z,9.67
2018-10-17T22:51:39.973Z,8.53
2018-10-17T22:54:08.821Z,10.00
2018-10-17T22:56:37.886Z,9.83
2018-10-17T22:59:06.473Z,8.73
2018-10-17T23:01:35.101Z,8.40
2018-10-17T23:04:03.364Z,8.87
2018-10-17T23:06:31.640Z,8.00
2018-10-17T23:08:59.903Z,8.63
2018-10-17T23:11:28.193Z,9.37
2018-10-17T23:13:56.566Z,8.20
2018-10-17T23:16:24.801Z,8.80
2018-10-17T23:18:53.132Z,8.10
2018-10-17T23:21:21.445Z,8.87
2018-10-17T23:23:49.709Z,9.07
2018-10-17T23:26:18.205Z,8.70
2018-10-17T23:28:46.337Z,7.67
2018-10-17T23:31:14.612Z,8.27
2018-10-17T23:33:42.922Z,8.60
2018-10-17T23:36:11.164Z,7.90
2018-10-17T23:38:39.435Z,8.20
2018-10-17T23:41:07.696Z,8.33
2018-10-17T23:43:35.986Z,8.77
2018-10-17T23:46:04.297Z,8.60
2018-10-17T23:48:32.595Z,8.40
2018-10-17T23:51:00.917Z,8.53
2018-10-17T23:53:29.193Z,8.17
2018-10-17T23:55:57.557Z,8.53
2018-10-17T23:58:25.808Z,8.50
